sensor_id;sensor_type;location;lat;lon;timestamp;temperature;humidity
60033;DHT22;45905;50.570;10.428;2023-02-01T00:01:06;3.60;99.90
60033;DHT22;45905;50.570;10.428;2023-02-01T00:03:34;3.70;99.90
60033;DHT22;45905;50.570;10.428;2023-02-01T00:06:02;3.70;99.90
60033;DHT22;45905;50.570;10.428;2023-02-01T00:08:29;3.70;99.90
60033;DHT22;45905;50.570;10.428;2023-02-01T00:11:01;3.80;99.90
60033;DHT22;45905;50.570;10.428;2023-02-01T00:13:35;3.80;99.90
60033;DHT22;45905;50.570;10.428;2023-02-01T00:16:10;3.90;99.90
60033;DHT22;45905;50.570;10.428;2023-02-01T00:19:01;3.80;99.90
60033;DHT22;45905;50.570;10.428;2023-02-01T00:21:29;3.80;99.90
60033;DHT22;45905;50.570;10.428;2023-02-01T00:23:57;3.80;99.90
60033;DHT22;45905;50.570;10.428;2023-02-01T00:26:39;3.90;99.90
60033;DHT22;45905;50.570;10.428;2023-02-01T00:29:13;3.80;99.90
60033;DHT22;45905;50.570;10.428;2023-02-01T00:31:43;3.80;99.90
60033;DHT22;45905;50.570;10.428;2023-02-01T00:34:15;3.80;99.90
60033;DHT22;45905;50.570;10.428;2023-02-01T00:36:43;3.80;99.90
60033;DHT22;45905;50.570;10.428;2023-02-01T00:39:12;3.80;99.90
60033;DHT22;45905;50.570;10.428;2023-02-01T00:41:39;3.80;99.90
60033;DHT22;45905;50.570;10.428;2023-02-01T00:44:07;3.80;99.90
60033;DHT22;45905;50.570;10.428;2023-02-01T00:46:34;3.80;99.90
60033;DHT22;45905;50.570;10.428;2023-02-01T00:49:02;3.80;99.90
60033;DHT22;45905;50.570;10.428;2023-02-01T00:51:30;3.80;99.90
60033;DHT22;45905;50.570;10.428;2023-02-01T00:53:57;3.80;99.90
60033;DHT22;45905;50.570;10.428;2023-02-01T00:56:25;3.70;99.90
60033;DHT22;45905;50.570;10.428;2023-02-01T00:58:54;3.70;99.90
60033;DHT22;45905;50.570;10.428;2023-02-01T01:01:23;3.70;99.90
60033;DHT22;45905;50.570;10.428;2023-02-01T01:03:56;3.70;99.90
60033;DHT22;45905;50.570;10.428;2023-02-01T01:06:30;3.60;99.90
60033;DHT22;45905;50.570;10.428;2023-02-01T01:09:00;3.60;99.90
60033;DHT22;45905;50.570;10.428;2023-02-01T01:11:31;3.60;99.90
60033;DHT22;45905;50.570;10.428;2023-02-01T01:14:00;3.60;99.90
60033;DHT22;45905;50.570;10.428;2023-02-01T01:16:30;3.60;99.90
60033;DHT22;45905;50.570;10.428;2023-02-01T01:18:58;3.50;99.90
60033;DHT22;45905;50.570;10.428;2023-02-01T01:21:26;3.50;99.90
60033;DHT22;45905;50.570;10.428;2023-02-01T01:23:53;3.50;99.90
60033;DHT22;45905;50.570;10.428;2023-02-01T01:26:24;3.40;99.90
60033;DHT22;45905;50.570;10.428;2023-02-01T01:28:58;3.60;99.90
60033;DHT22;45905;50.570;10.428;2023-02-01T01:31:26;3.40;99.90
60033;DHT22;45905;50.570;10.428;2023-02-01T01:33:56;3.40;99.90
60033;DHT22;45905;50.570;10.428;2023-02-01T01:36:26;3.40;99.90
60033;DHT22;45905;50.570;10.428;2023-02-01T01:38:53;3.30;99.90
60033;DHT22;45905;50.570;10.428;2023-02-01T01:41:30;3.50;99.90
60033;DHT22;45905;50.570;10.428;2023-02-01T01:44:53;4.40;99.90
60033;DHT22;45905;50.570;10.428;2023-02-01T01:47:44;3.40;99.90
60033;DHT22;45905;50.570;10.428;2023-02-01T01:50:19;3.40;99.90
60033;DHT22;45905;50.570;10.428;2023-02-01T01:52:51;3.40;99.90
60033;DHT22;45905;50.570;10.428;2023-02-01T01:55:22;3.40;99.90
60033;DHT22;45905;50.570;10.428;2023-02-01T01:58:05;3.40;99.90
60033;DHT22;45905;50.570;10.428;2023-02-01T02:00:36;3.50;99.90
60033;DHT22;45905;50.570;10.428;2023-02-01T02:03:18;3.40;99.90
60033;DHT22;45905;50.570;10.428;2023-02-01T02:05:49;3.50;99.90
60033;DHT22;45905;50.570;10.428;2023-02-01T02:08:18;3.50;99.90
60033;DHT22;45905;50.570;10.428;2023-02-01T02:10:50;3.50;99.90
60033;DHT22;45905;50.570;10.428;2023-02-01T02:13:33;3.40;99.90
60033;DHT22;45905;50.570;10.428;2023-02-01T02:25:46;3.40;99.90
60033;DHT22;45905;50.570;10.428;2023-02-01T02:38:14;3.50;99.90
60033;DHT22;45905;50.570;10.428;2023-02-01T02:44:09;3.50;99.90
60033;DHT22;45905;50.570;10.428;2023-02-01T02:47:15;3.50;99.90
60033;DHT22;45905;50.570;10.428;2023-02-01T02:50:27;3.50;99.90
60033;DHT22;45905;50.570;10.428;2023-02-01T02:56:20;3.50;99.90
60033;DHT22;45905;50.570;10.428;2023-02-01T02:59:09;3.50;99.90
60033;DHT22;45905;50.570;10.428;2023-02-01T03:01:58;3.60;99.90
60033;DHT22;45905;50.570;10.428;2023-02-01T03:04:44;3.50;99.90
60033;DHT22;45905;50.570;10.428;2023-02-01T03:13:18;3.50;99.90
60033;DHT22;45905;50.570;10.428;2023-02-01T03:16:18;3.50;99.90
60033;DHT22;45905;50.570;10.428;2023-02-01T03:21:52;3.60;99.90
60033;DHT22;45905;50.570;10.428;2023-02-01T03:27:10;3.80;99.90
60033;DHT22;45905;50.570;10.428;2023-02-01T03:30:09;3.70;99.90
60033;DHT22;45905;50.570;10.428;2023-02-01T03:32:47;3.70;99.90
60033;DHT22;45905;50.570;10.428;2023-02-01T03:35:52;3.70;99.90
60033;DHT22;45905;50.570;10.428;2023-02-01T03:38:22;3.80;99.90
60033;DHT22;45905;50.570;10.428;2023-02-01T03:43:57;3.80;99.90
60033;DHT22;45905;50.570;10.428;2023-02-01T03:46:40;3.90;99.90
60033;DHT22;45905;50.570;10.428;2023-02-01T03:49:27;4.40;99.90
60033;DHT22;45905;50.570;10.428;2023-02-01T03:52:06;3.90;99.90
60033;DHT22;45905;50.570;10.428;2023-02-01T03:54:42;3.80;99.90
60033;DHT22;45905;50.570;10.428;2023-02-01T03:57:14;3.90;99.90
60033;DHT22;45905;50.570;10.428;2023-02-01T03:59:47;3.80;99.90
60033;DHT22;45905;50.570;10.428;2023-02-01T04:02:15;3.90;99.90
60033;DHT22;45905;50.570;10.428;2023-02-01T04:04:43;3.90;99.90
60033;DHT22;45905;50.570;10.428;2023-02-01T04:07:12;3.90;99.90
60033;DHT22;45905;50.570;10.428;2023-02-01T04:09:40;3.80;99.90
60033;DHT22;45905;50.570;10.428;2023-02-01T04:12:07;3.70;99.90
60033;DHT22;45905;50.570;10.428;2023-02-01T04:14:34;3.70;99.90
60033;DHT22;45905;50.570;10.428;2023-02-01T04:17:01;3.70;99.90
60033;DHT22;45905;50.570;10.428;2023-02-01T04:19:28;3.70;99.90
60033;DHT22;45905;50.570;10.428;2023-02-01T04:21:55;3.60;99.90
60033;DHT22;45905;50.570;10.428;2023-02-01T04:24:23;3.70;99.90
60033;DHT22;45905;50.570;10.428;2023-02-01T04:26:50;3.60;99.90
60033;DHT22;45905;50.570;10.428;2023-02-01T04:29:17;3.60;99.90
60033;DHT22;45905;50.570;10.428;2023-02-01T04:31:44;3.60;99.90
60033;DHT22;45905;50.570;10.428;2023-02-01T04:34:13;3.90;99.90
60033;DHT22;45905;50.570;10.428;2023-02-01T04:36:40;3.40;99.90
60033;DHT22;45905;50.570;10.428;2023-02-01T04:39:09;3.50;99.90
60033;DHT22;45905;50.570;10.428;2023-02-01T04:41:36;3.30;99.90
60033;DHT22;45905;50.570;10.428;2023-02-01T04:44:03;3.30;99.90
60033;DHT22;45905;50.570;10.428;2023-02-01T04:46:31;3.30;99.90
60033;DHT22;45905;50.570;10.428;2023-02-01T04:48:58;3.30;99.90
60033;DHT22;45905;50.570;10.428;2023-02-01T04:51:25;3.30;99.90
60033;DHT22;45905;50.570;10.428;2023-02-01T04:53:52;3.30;99.90
60033;DHT22;45905;50.570;10.428;2023-02-01T04:56:21;3.30;99.90
60033;DHT22;45905;50.570;10.428;2023-02-01T04:58:48;3.30;99.90
60033;DHT22;45905;50.570;10.428;2023-02-01T05:01:16;3.30;99.90
60033;DHT22;45905;50.570;10.428;2023-02-01T05:03:43;3.40;99.90
60033;DHT22;45905;50.570;10.428;2023-02-01T05:06:10;3.30;99.90
60033;DHT22;45905;50.570;10.428;2023-02-01T05:08:37;3.40;99.90
60033;DHT22;45905;50.570;10.428;2023-02-01T05:11:05;3.40;99.90
60033;DHT22;45905;50.570;10.428;2023-02-01T05:13:32;3.40;99.90
60033;DHT22;45905;50.570;10.428;2023-02-01T05:16:17;3.40;99.90
60033;DHT22;45905;50.570;10.428;2023-02-01T05:18:44;3.40;99.90
60033;DHT22;45905;50.570;10.428;2023-02-01T05:21:12;3.40;99.90
60033;DHT22;45905;50.570;10.428;2023-02-01T05:23:39;3.40;99.90
60033;DHT22;45905;50.570;10.428;2023-02-01T05:26:25;3.40;99.90
60033;DHT22;45905;50.570;10.428;2023-02-01T05:28:52;3.40;99.90
60033;DHT22;45905;50.570;10.428;2023-02-01T05:31:19;3.20;99.90
60033;DHT22;45905;50.570;10.428;2023-02-01T05:33:47;3.50;99.90
60033;DHT22;45905;50.570;10.428;2023-02-01T05:36:14;3.50;99.90
60033;DHT22;45905;50.570;10.428;2023-02-01T05:38:42;3.50;99.90
60033;DHT22;45905;50.570;10.428;2023-02-01T05:41:09;3.50;99.90
60033;DHT22;45905;50.570;10.428;2023-02-01T05:43:36;3.50;99.90
60033;DHT22;45905;50.570;10.428;2023-02-01T05:46:04;3.50;99.90
60033;DHT22;45905;50.570;10.428;2023-02-01T05:48:31;3.50;99.90
60033;DHT22;45905;50.570;10.428;2023-02-01T05:50:58;3.60;99.90
60033;DHT22;45905;50.570;10.428;2023-02-01T05:53:25;3.80;99.90
60033;DHT22;45905;50.570;10.428;2023-02-01T05:55:52;3.60;99.90
60033;DHT22;45905;50.570;10.428;2023-02-01T05:58:20;3.70;99.90
60033;DHT22;45905;50.570;10.428;2023-02-01T06:00:47;3.70;99.90
60033;DHT22;45905;50.570;10.428;2023-02-01T06:03:14;3.70;99.90
60033;DHT22;45905;50.570;10.428;2023-02-01T06:05:44;3.70;99.90
60033;DHT22;45905;50.570;10.428;2023-02-01T06:08:12;3.70;99.90
60033;DHT22;45905;50.570;10.428;2023-02-01T06:10:40;3.70;99.90
60033;DHT22;45905;50.570;10.428;2023-02-01T06:13:07;3.70;99.90
60033;DHT22;45905;50.570;10.428;2023-02-01T06:15:35;3.80;99.90
60033;DHT22;45905;50.570;10.428;2023-02-01T06:18:04;3.70;99.90
60033;DHT22;45905;50.570;10.428;2023-02-01T06:20:31;3.70;99.90
60033;DHT22;45905;50.570;10.428;2023-02-01T06:22:58;3.70;99.90
60033;DHT22;45905;50.570;10.428;2023-02-01T06:25:25;3.70;99.90
60033;DHT22;45905;50.570;10.428;2023-02-01T06:27:52;3.60;99.90
60033;DHT22;45905;50.570;10.428;2023-02-01T06:30:20;3.60;99.90
60033;DHT22;45905;50.570;10.428;2023-02-01T06:32:50;3.70;99.90
60033;DHT22;45905;50.570;10.428;2023-02-01T06:35:21;3.60;99.90
60033;DHT22;45905;50.570;10.428;2023-02-01T06:37:48;3.60;99.90
60033;DHT22;45905;50.570;10.428;2023-02-01T06:40:15;3.60;99.90
60033;DHT22;45905;50.570;10.428;2023-02-01T06:42:42;3.60;99.90
60033;DHT22;45905;50.570;10.428;2023-02-01T06:45:10;3.60;99.90
60033;DHT22;45905;50.570;10.428;2023-02-01T06:47:37;3.60;99.90
60033;DHT22;45905;50.570;10.428;2023-02-01T06:50:04;3.60;99.90
60033;DHT22;45905;50.570;10.428;2023-02-01T06:52:32;3.60;99.90
60033;DHT22;45905;50.570;10.428;2023-02-01T06:54:59;3.60;99.90
60033;DHT22;45905;50.570;10.428;2023-02-01T06:57:26;3.60;99.90
60033;DHT22;45905;50.570;10.428;2023-02-01T06:59:57;3.60;99.90
60033;DHT22;45905;50.570;10.428;2023-02-01T07:02:25;3.70;99.90
60033;DHT22;45905;50.570;10.428;2023-02-01T07:04:52;3.70;99.90
60033;DHT22;45905;50.570;10.428;2023-02-01T07:07:19;3.70;99.90
60033;DHT22;45905;50.570;10.428;2023-02-01T07:09:49;3.70;99.90
60033;DHT22;45905;50.570;10.428;2023-02-01T07:12:16;3.70;99.90
60033;DHT22;45905;50.570;10.428;2023-02-01T07:14:43;3.70;99.90
60033;DHT22;45905;50.570;10.428;2023-02-01T07:17:10;3.70;99.90
60033;DHT22;45905;50.570;10.428;2023-02-01T07:19:38;3.70;99.90
60033;DHT22;45905;50.570;10.428;2023-02-01T07:22:05;3.70;99.90
60033;DHT22;45905;50.570;10.428;2023-02-01T07:24:33;3.70;99.90
60033;DHT22;45905;50.570;10.428;2023-02-01T07:27:01;3.80;99.90
60033;DHT22;45905;50.570;10.428;2023-02-01T07:29:28;3.80;99.90
60033;DHT22;45905;50.570;10.428;2023-02-01T07:31:55;3.80;99.90
60033;DHT22;45905;50.570;10.428;2023-02-01T07:34:22;3.80;99.90
60033;DHT22;45905;50.570;10.428;2023-02-01T07:36:49;3.90;99.90
60033;DHT22;45905;50.570;10.428;2023-02-01T07:39:16;3.90;99.90
60033;DHT22;45905;50.570;10.428;2023-02-01T07:41:43;3.90;99.90
60033;DHT22;45905;50.570;10.428;2023-02-01T07:44:12;3.90;99.90
60033;DHT22;45905;50.570;10.428;2023-02-01T07:46:39;3.90;99.90
60033;DHT22;45905;50.570;10.428;2023-02-01T07:49:06;4.00;99.90
60033;DHT22;45905;50.570;10.428;2023-02-01T07:51:34;4.00;99.90
60033;DHT22;45905;50.570;10.428;2023-02-01T07:54:01;4.00;99.90
60033;DHT22;45905;50.570;10.428;2023-02-01T07:56:28;4.00;99.90
60033;DHT22;45905;50.570;10.428;2023-02-01T07:58:55;4.10;99.90
60033;DHT22;45905;50.570;10.428;2023-02-01T08:01:25;4.10;99.90
60033;DHT22;45905;50.570;10.428;2023-02-01T08:03:58;4.10;99.90
60033;DHT22;45905;50.570;10.428;2023-02-01T08:06:29;4.10;99.90
60033;DHT22;45905;50.570;10.428;2023-02-01T08:08:59;4.10;99.90
60033;DHT22;45905;50.570;10.428;2023-02-01T08:11:26;4.10;99.90
60033;DHT22;45905;50.570;10.428;2023-02-01T08:13:54;4.10;99.90
60033;DHT22;45905;50.570;10.428;2023-02-01T08:16:22;4.00;99.90
60033;DHT22;45905;50.570;10.428;2023-02-01T08:18:51;4.10;99.90
60033;DHT22;45905;50.570;10.428;2023-02-01T08:21:22;4.20;99.90
60033;DHT22;45905;50.570;10.428;2023-02-01T08:23:51;4.20;99.90
60033;DHT22;45905;50.570;10.428;2023-02-01T08:26:21;4.10;99.90
60033;DHT22;45905;50.570;10.428;2023-02-01T08:28:53;4.10;99.90
60033;DHT22;45905;50.570;10.428;2023-02-01T08:31:26;4.20;99.90
60033;DHT22;45905;50.570;10.428;2023-02-01T08:33:57;4.10;99.90
60033;DHT22;45905;50.570;10.428;2023-02-01T08:36:28;4.20;99.90
60033;DHT22;45905;50.570;10.428;2023-02-01T08:38:57;4.20;99.90
60033;DHT22;45905;50.570;10.428;2023-02-01T08:41:27;4.20;99.90
60033;DHT22;45905;50.570;10.428;2023-02-01T08:43:56;4.20;99.90
60033;DHT22;45905;50.570;10.428;2023-02-01T08:46:25;4.20;99.90
60033;DHT22;45905;50.570;10.428;2023-02-01T08:48:52;4.20;99.90
60033;DHT22;45905;50.570;10.428;2023-02-01T08:51:22;4.30;99.90
60033;DHT22;45905;50.570;10.428;2023-02-01T08:53:49;4.20;99.90
60033;DHT22;45905;50.570;10.428;2023-02-01T08:56:18;4.20;99.90
60033;DHT22;45905;50.570;10.428;2023-02-01T08:58:46;4.20;99.90
60033;DHT22;45905;50.570;10.428;2023-02-01T09:01:15;4.20;99.90
60033;DHT22;45905;50.570;10.428;2023-02-01T09:03:44;4.30;99.90
60033;DHT22;45905;50.570;10.428;2023-02-01T09:06:13;4.30;99.90
60033;DHT22;45905;50.570;10.428;2023-02-01T09:08:41;4.30;99.90
60033;DHT22;45905;50.570;10.428;2023-02-01T09:11:17;4.30;99.90
60033;DHT22;45905;50.570;10.428;2023-02-01T09:13:46;4.40;99.90
60033;DHT22;45905;50.570;10.428;2023-02-01T09:16:14;4.40;99.90
60033;DHT22;45905;50.570;10.428;2023-02-01T09:18:42;4.40;99.90
60033;DHT22;45905;50.570;10.428;2023-02-01T09:21:29;4.40;99.90
60033;DHT22;45905;50.570;10.428;2023-02-01T09:23:57;4.40;99.90
60033;DHT22;45905;50.570;10.428;2023-02-01T09:26:24;4.40;99.90
60033;DHT22;45905;50.570;10.428;2023-02-01T09:28:59;4.50;99.90
60033;DHT22;45905;50.570;10.428;2023-02-01T09:31:26;4.50;99.90
60033;DHT22;45905;50.570;10.428;2023-02-01T09:33:54;4.70;99.90
60033;DHT22;45905;50.570;10.428;2023-02-01T09:36:21;4.60;99.90
60033;DHT22;45905;50.570;10.428;2023-02-01T09:38:50;4.50;99.90
60033;DHT22;45905;50.570;10.428;2023-02-01T09:47:18;4.60;99.90
60033;DHT22;45905;50.570;10.428;2023-02-01T09:50:18;4.60;99.90
60033;DHT22;45905;50.570;10.428;2023-02-01T09:55:39;4.60;99.90
60033;DHT22;45905;50.570;10.428;2023-02-01T09:58:41;4.60;99.90
60033;DHT22;45905;50.570;10.428;2023-02-01T10:01:22;4.70;99.90
60033;DHT22;45905;50.570;10.428;2023-02-01T10:04:01;4.70;99.90
60033;DHT22;45905;50.570;10.428;2023-02-01T10:09:42;4.70;99.90
60033;DHT22;45905;50.570;10.428;2023-02-01T10:15:28;4.80;99.90
60033;DHT22;45905;50.570;10.428;2023-02-01T10:18:24;4.80;99.90
60033;DHT22;45905;50.570;10.428;2023-02-01T10:21:15;4.80;99.90
60033;DHT22;45905;50.570;10.428;2023-02-01T10:24:11;4.80;99.90
60033;DHT22;45905;50.570;10.428;2023-02-01T10:27:02;5.00;99.90
60033;DHT22;45905;50.570;10.428;2023-02-01T10:29:43;4.80;99.90
60033;DHT22;45905;50.570;10.428;2023-02-01T10:32:18;4.80;99.90
60033;DHT22;45905;50.570;10.428;2023-02-01T10:34:57;4.90;99.90
60033;DHT22;45905;50.570;10.428;2023-02-01T10:37:27;4.80;99.90
60033;DHT22;45905;50.570;10.428;2023-02-01T10:42:41;4.80;99.90
60033;DHT22;45905;50.570;10.428;2023-02-01T10:45:22;4.80;99.90
60033;DHT22;45905;50.570;10.428;2023-02-01T10:47:55;4.80;99.90
60033;DHT22;45905;50.570;10.428;2023-02-01T10:53:21;4.80;99.90
60033;DHT22;45905;50.570;10.428;2023-02-01T10:55:54;4.80;99.90
60033;DHT22;45905;50.570;10.428;2023-02-01T10:58:31;4.80;99.90
60033;DHT22;45905;50.570;10.428;2023-02-01T11:01:14;4.80;99.90
60033;DHT22;45905;50.570;10.428;2023-02-01T11:04:13;4.70;99.90
60033;DHT22;45905;50.570;10.428;2023-02-01T11:06:44;4.70;99.90
60033;DHT22;45905;50.570;10.428;2023-02-01T11:14:38;4.70;99.90
60033;DHT22;45905;50.570;10.428;2023-02-01T11:20:17;4.60;99.90
60033;DHT22;45905;50.570;10.428;2023-02-01T11:22:55;4.60;99.90
60033;DHT22;45905;50.570;10.428;2023-02-01T11:25:24;4.50;99.90
60033;DHT22;45905;50.570;10.428;2023-02-01T11:27:54;4.60;99.90
60033;DHT22;45905;50.570;10.428;2023-02-01T11:30:36;4.50;99.90
60033;DHT22;45905;50.570;10.428;2023-02-01T11:33:14;4.40;99.90
60033;DHT22;45905;50.570;10.428;2023-02-01T11:35:44;4.50;99.90
60033;DHT22;45905;50.570;10.428;2023-02-01T11:38:21;4.50;99.90
60033;DHT22;45905;50.570;10.428;2023-02-01T11:40:53;4.50;99.90
60033;DHT22;45905;50.570;10.428;2023-02-01T11:43:24;4.50;99.90
60033;DHT22;45905;50.570;10.428;2023-02-01T11:45:59;4.50;99.90
60033;DHT22;45905;50.570;10.428;2023-02-01T11:48:30;4.50;99.90
60033;DHT22;45905;50.570;10.428;2023-02-01T11:51:24;4.50;99.90
60033;DHT22;45905;50.570;10.428;2023-02-01T11:54:14;4.50;99.90
60033;DHT22;45905;50.570;10.428;2023-02-01T11:56:58;4.50;99.90
60033;DHT22;45905;50.570;10.428;2023-02-01T12:00:11;4.50;99.90
60033;DHT22;45905;50.570;10.428;2023-02-01T12:03:20;4.50;99.90
60033;DHT22;45905;50.570;10.428;2023-02-01T12:32:20;4.50;99.90
60033;DHT22;45905;50.570;10.428;2023-02-01T12:34:58;4.50;99.90
60033;DHT22;45905;50.570;10.428;2023-02-01T12:40:42;4.50;99.90
60033;DHT22;45905;50.570;10.428;2023-02-01T12:46:37;4.60;99.90
60033;DHT22;45905;50.570;10.428;2023-02-01T12:49:21;4.60;99.90
60033;DHT22;45905;50.570;10.428;2023-02-01T12:52:16;4.60;99.90
60033;DHT22;45905;50.570;10.428;2023-02-01T12:57:35;4.60;99.90
60033;DHT22;45905;50.570;10.428;2023-02-01T13:03:15;4.70;99.90
60033;DHT22;45905;50.570;10.428;2023-02-01T13:11:34;4.70;99.90
60033;DHT22;45905;50.570;10.428;2023-02-01T13:16:47;4.70;99.90
60033;DHT22;45905;50.570;10.428;2023-02-01T13:19:20;4.70;99.90
60033;DHT22;45905;50.570;10.428;2023-02-01T13:22:32;4.70;99.90
60033;DHT22;45905;50.570;10.428;2023-02-01T13:25:41;4.70;99.90
60033;DHT22;45905;50.570;10.428;2023-02-01T13:43:12;4.90;99.90
60033;DHT22;45905;50.570;10.428;2023-02-01T13:45:49;4.90;99.90
60033;DHT22;45905;50.570;10.428;2023-02-01T13:50:56;4.90;99.90
60033;DHT22;45905;50.570;10.428;2023-02-01T13:53:36;4.90;99.90
60033;DHT22;45905;50.570;10.428;2023-02-01T13:56:11;4.90;99.90
60033;DHT22;45905;50.570;10.428;2023-02-01T13:58:43;4.90;99.90
60033;DHT22;45905;50.570;10.428;2023-02-01T14:03:53;4.90;99.90
60033;DHT22;45905;50.570;10.428;2023-02-01T14:09:13;5.10;99.90
60033;DHT22;45905;50.570;10.428;2023-02-01T14:11:48;5.00;99.90
60033;DHT22;45905;50.570;10.428;2023-02-01T14:19:38;5.90;99.90
60033;DHT22;45905;50.570;10.428;2023-02-01T14:24:41;5.10;99.90
60033;DHT22;45905;50.570;10.428;2023-02-01T14:30:51;5.20;99.90
60033;DHT22;45905;50.570;10.428;2023-02-01T14:33:21;5.10;99.90
60033;DHT22;45905;50.570;10.428;2023-02-01T14:38:35;5.10;99.90
60033;DHT22;45905;50.570;10.428;2023-02-01T14:47:08;5.10;99.90
60033;DHT22;45905;50.570;10.428;2023-02-01T14:52:43;5.10;99.90
60033;DHT22;45905;50.570;10.428;2023-02-01T14:55:51;5.10;99.90
60033;DHT22;45905;50.570;10.428;2023-02-01T14:58:41;5.10;99.90
60033;DHT22;45905;50.570;10.428;2023-02-01T15:04:12;5.00;99.90
60033;DHT22;45905;50.570;10.428;2023-02-01T15:09:32;5.00;99.90
60033;DHT22;45905;50.570;10.428;2023-02-01T15:15:03;5.00;99.90
60033;DHT22;45905;50.570;10.428;2023-02-01T15:17:55;5.00;99.90
60033;DHT22;45905;50.570;10.428;2023-02-01T15:20:30;5.00;99.90
60033;DHT22;45905;50.570;10.428;2023-02-01T15:23:05;5.00;99.90
60033;DHT22;45905;50.570;10.428;2023-02-01T15:25:45;5.00;99.90
60033;DHT22;45905;50.570;10.428;2023-02-01T15:28:15;5.00;99.90
60033;DHT22;45905;50.570;10.428;2023-02-01T15:30:57;5.00;99.90
60033;DHT22;45905;50.570;10.428;2023-02-01T15:33:29;4.90;99.90
60033;DHT22;45905;50.570;10.428;2023-02-01T15:36:10;5.00;99.90
60033;DHT22;45905;50.570;10.428;2023-02-01T15:38:44;5.00;99.90
60033;DHT22;45905;50.570;10.428;2023-02-01T15:41:19;4.90;99.90
60033;DHT22;45905;50.570;10.428;2023-02-01T15:46:28;5.00;99.90
60033;DHT22;45905;50.570;10.428;2023-02-01T15:48:58;5.10;99.90
60033;DHT22;45905;50.570;10.428;2023-02-01T15:51:29;5.00;99.90
60033;DHT22;45905;50.570;10.428;2023-02-01T15:54:05;5.00;99.90
60033;DHT22;45905;50.570;10.428;2023-02-01T15:56:39;5.00;99.90
60033;DHT22;45905;50.570;10.428;2023-02-01T15:59:16;4.90;99.90
60033;DHT22;45905;50.570;10.428;2023-02-01T16:01:45;5.00;99.90
60033;DHT22;45905;50.570;10.428;2023-02-01T16:04:25;5.00;99.90
60033;DHT22;45905;50.570;10.428;2023-02-01T16:07:00;5.00;99.90
60033;DHT22;45905;50.570;10.428;2023-02-01T16:09:51;5.00;99.90
60033;DHT22;45905;50.570;10.428;2023-02-01T16:12:33;5.00;99.90
60033;DHT22;45905;50.570;10.428;2023-02-01T16:15:13;5.00;99.90
60033;DHT22;45905;50.570;10.428;2023-02-01T16:17:40;5.00;99.90
60033;DHT22;45905;50.570;10.428;2023-02-01T16:20:08;5.00;99.90
60033;DHT22;45905;50.570;10.428;2023-02-01T16:22:36;4.90;99.90
60033;DHT22;45905;50.570;10.428;2023-02-01T16:25:03;4.90;99.90
60033;DHT22;45905;50.570;10.428;2023-02-01T16:27:30;4.80;99.90
60033;DHT22;45905;50.570;10.428;2023-02-01T16:29:57;4.90;99.90
60033;DHT22;45905;50.570;10.428;2023-02-01T16:32:25;4.80;99.90
60033;DHT22;45905;50.570;10.428;2023-02-01T16:34:53;4.80;99.90
60033;DHT22;45905;50.570;10.428;2023-02-01T16:37:22;4.70;99.90
60033;DHT22;45905;50.570;10.428;2023-02-01T16:39:51;4.70;99.90
60033;DHT22;45905;50.570;10.428;2023-02-01T16:42:18;4.70;99.90
60033;DHT22;45905;50.570;10.428;2023-02-01T16:44:45;4.70;99.90
60033;DHT22;45905;50.570;10.428;2023-02-01T16:47:21;4.70;99.90
60033;DHT22;45905;50.570;10.428;2023-02-01T16:49:49;4.70;99.90
60033;DHT22;45905;50.570;10.428;2023-02-01T16:52:22;4.70;99.90
60033;DHT22;45905;50.570;10.428;2023-02-01T16:54:51;4.60;99.90
60033;DHT22;45905;50.570;10.428;2023-02-01T16:57:20;4.60;99.90
60033;DHT22;45905;50.570;10.428;2023-02-01T16:59:50;4.50;99.90
60033;DHT22;45905;50.570;10.428;2023-02-01T17:02:19;4.50;99.90
60033;DHT22;45905;50.570;10.428;2023-02-01T17:04:46;4.40;99.90
60033;DHT22;45905;50.570;10.428;2023-02-01T17:07:16;4.40;99.90
60033;DHT22;45905;50.570;10.428;2023-02-01T17:09:46;4.50;99.90
60033;DHT22;45905;50.570;10.428;2023-02-01T17:12:29;4.40;99.90
60033;DHT22;45905;50.570;10.428;2023-02-01T17:14:59;4.40;99.90
60033;DHT22;45905;50.570;10.428;2023-02-01T17:17:32;4.40;99.90
60033;DHT22;45905;50.570;10.428;2023-02-01T17:20:05;4.40;99.90
60033;DHT22;45905;50.570;10.428;2023-02-01T17:22:33;4.40;99.90
60033;DHT22;45905;50.570;10.428;2023-02-01T17:25:01;4.50;99.90
60033;DHT22;45905;50.570;10.428;2023-02-01T17:27:28;4.50;99.90
60033;DHT22;45905;50.570;10.428;2023-02-01T17:29:56;4.50;99.90
60033;DHT22;45905;50.570;10.428;2023-02-01T17:32:24;4.50;99.90
60033;DHT22;45905;50.570;10.428;2023-02-01T17:34:52;4.60;99.90
60033;DHT22;45905;50.570;10.428;2023-02-01T17:37:29;4.60;99.90
60033;DHT22;45905;50.570;10.428;2023-02-01T17:39:59;4.60;99.90
60033;DHT22;45905;50.570;10.428;2023-02-01T17:42:28;4.60;99.90
60033;DHT22;45905;50.570;10.428;2023-02-01T17:44:58;4.10;99.90
60033;DHT22;45905;50.570;10.428;2023-02-01T17:47:27;4.60;99.90
60033;DHT22;45905;50.570;10.428;2023-02-01T17:49:54;4.70;99.90
60033;DHT22;45905;50.570;10.428;2023-02-01T17:52:23;4.70;99.90
60033;DHT22;45905;50.570;10.428;2023-02-01T17:54:52;4.70;99.90
60033;DHT22;45905;50.570;10.428;2023-02-01T17:57:20;4.70;99.90
60033;DHT22;45905;50.570;10.428;2023-02-01T17:59:48;4.60;99.90
60033;DHT22;45905;50.570;10.428;2023-02-01T18:02:21;4.70;99.90
60033;DHT22;45905;50.570;10.428;2023-02-01T18:04:50;4.70;99.90
60033;DHT22;45905;50.570;10.428;2023-02-01T18:07:17;4.70;99.90
60033;DHT22;45905;50.570;10.428;2023-02-01T18:09:45;4.60;99.90
60033;DHT22;45905;50.570;10.428;2023-02-01T18:12:19;4.70;99.90
60033;DHT22;45905;50.570;10.428;2023-02-01T18:14:49;4.60;99.90
60033;DHT22;45905;50.570;10.428;2023-02-01T18:17:16;4.60;99.90
60033;DHT22;45905;50.570;10.428;2023-02-01T18:19:43;5.00;99.90
60033;DHT22;45905;50.570;10.428;2023-02-01T18:22:19;4.70;99.90
60033;DHT22;45905;50.570;10.428;2023-02-01T18:24:49;4.60;99.90
60033;DHT22;45905;50.570;10.428;2023-02-01T18:27:17;4.70;99.90
60033;DHT22;45905;50.570;10.428;2023-02-01T18:29:44;4.70;99.90
60033;DHT22;45905;50.570;10.428;2023-02-01T18:32:14;4.70;99.90
60033;DHT22;45905;50.570;10.428;2023-02-01T18:34:42;4.80;99.90
60033;DHT22;45905;50.570;10.428;2023-02-01T18:37:09;4.70;99.90
60033;DHT22;45905;50.570;10.428;2023-02-01T18:39:36;4.80;99.90
60033;DHT22;45905;50.570;10.428;2023-02-01T18:42:05;4.70;99.90
60033;DHT22;45905;50.570;10.428;2023-02-01T18:44:32;4.80;99.90
60033;DHT22;45905;50.570;10.428;2023-02-01T18:46:59;4.80;99.90
60033;DHT22;45905;50.570;10.428;2023-02-01T18:49:26;4.80;99.90
60033;DHT22;45905;50.570;10.428;2023-02-01T18:51:53;4.80;99.90
60033;DHT22;45905;50.570;10.428;2023-02-01T18:54:20;4.80;99.90
60033;DHT22;45905;50.570;10.428;2023-02-01T18:56:50;4.80;99.90
60033;DHT22;45905;50.570;10.428;2023-02-01T18:59:17;4.80;99.90